Oak Forest, Texas
Current Conditions -  °F | °C
As of 7:45 AM on Saturday 01 Nov 2014 (Local Time) from KHYI Reporting Station
Clear Clear  
Wind Chill: 42°   Ceiling: Unl
Heat Index: 46°   Visibility: 10mi
Dew Point: 36°   Wind: 9mph
Humidity: 66%   Direction: 10°N
Pressure: 30.39"   Gusts: NA
Location:  29.481°N, 97.4305°W
Report Text: KHYI 011245Z 01008KT 10SM CLR 08/02 A3039
Loading
Personal Weather Stations






























Interactive Weather Map
Tropical Storm Tracking
New forecast layout! Learn more

10-Day Weather Forecast

Advertisements
Track Severe Weather on mobile